Capt. Harry — WDC3690 — position and weather

sailwx.info

Track history (hours):
 
Tides and Currents Weather Stations Pressure Air Temp Water Temp Dewpoint Dewpoint Depression Visibility Wind Speed Wind Dir Waves Ship Positions

Capt. Harry

Owner: Wilmington Tug, Inc., New Castle, DE. More information available from US FCC via Universal Licensing System and Coast Guard Vessel Documentation Center.

Last reported at 2017-Jan-20 01:33 UTC. Time now 2017-Jan-20 01:48 UTC.
Position N 39°53' W 075°11'.

Type: Tug. MMSI: 367012530.

Date/timePositionNaut miles runAvg speedWind from/ knotsBaromVisibWave heightAir tempDewpointWater temp
2017-Jan-20 01:33N 39°53' W 075°11'0 0.0
2017-Jan-20 00:33N 39°53' W 075°11'0 0.0
2017-Jan-19 23:33N 39°53' W 075°11'0 0.0
2017-Jan-19 22:33N 39°53' W 075°11'0 0.0
2017-Jan-19 21:33N 39°53' W 075°11'1 1.2
2017-Jan-19 20:33N 39°53' W 075°10'1 1.2
2017-Jan-19 19:33N 39°53' W 075°11'0 0.0
2017-Jan-19 18:33N 39°53' W 075°11'0 0.0
2017-Jan-19 17:33N 39°53' W 075°11'0 0.0
2017-Jan-19 16:33N 39°53' W 075°11'0 0.0
2017-Jan-19 15:33N 39°53' W 075°11'0 0.0
2017-Jan-19 14:33N 39°53' W 075°11'0 0.0
2017-Jan-19 13:33N 39°53' W 075°11'0 0.0
2017-Jan-19 12:33N 39°53' W 075°11'0 0.0
2017-Jan-19 11:33N 39°53' W 075°11'0 0.0
2017-Jan-19 10:33N 39°53' W 075°11'0 0.0
2017-Jan-19 09:33N 39°53' W 075°11'0 0.0
2017-Jan-19 08:33N 39°53' W 075°11'0 0.0
2017-Jan-19 07:33N 39°53' W 075°11'0 0.0
2017-Jan-19 06:33N 39°53' W 075°11'0 0.0
2017-Jan-19 05:33N 39°53' W 075°11'0 0.0
2017-Jan-19 04:33N 39°53' W 075°11'0 0.0
2017-Jan-19 03:33N 39°53' W 075°11'0 0.0
2017-Jan-19 02:33N 39°53' W 075°11'3 2.5
2017-Jan-19 01:33N 39°54' W 075°08'0 0.3
2017-Jan-19 00:33N 39°54' W 075°08'0 0.1
2017-Jan-18 23:33N 39°54' W 075°08'0 0.2
2017-Jan-18 22:33N 39°54' W 075°08'2 2.3
2017-Jan-18 21:34N 39°53' W 075°11'3 3.3
2017-Jan-18 20:33N 39°51' W 075°15'2 1.9
2017-Jan-18 19:33N 39°52' W 075°13'1 1.5
2017-Jan-18 18:33N 39°53' W 075°11'0 0.0
2017-Jan-18 17:33N 39°53' W 075°11'0 0.0
2017-Jan-18 16:33N 39°53' W 075°11'0 0.0
2017-Jan-18 15:33N 39°53' W 075°11'0 0.0
2017-Jan-18 14:33N 39°53' W 075°11'0 0.0
2017-Jan-18 13:33N 39°53' W 075°11'0 0.0
2017-Jan-18 12:33N 39°53' W 075°11'0 0.0
2017-Jan-18 11:33N 39°53' W 075°11'2 2.5
2017-Jan-18 10:33N 39°54' W 075°08'2 2.5
2017-Jan-18 09:33N 39°53' W 075°11'0 0.0
2017-Jan-18 08:33N 39°53' W 075°11'0 0.0
2017-Jan-18 07:33N 39°53' W 075°11'0 0.0
2017-Jan-18 06:33N 39°53' W 075°11'0 0.0
2017-Jan-18 05:33N 39°53' W 075°11'0 0.0
2017-Jan-18 04:33N 39°53' W 075°11'0 0.0
2017-Jan-18 03:33N 39°53' W 075°11'0 0.0
2017-Jan-18 02:33N 39°53' W 075°11'0 0.0
2017-Jan-18 01:33N 39°53' W 075°11'0 0.0
2017-Jan-18 00:33N 39°53' W 075°11'0 0.0
2017-Jan-17 23:33N 39°53' W 075°11'0 0.0
2017-Jan-17 22:33N 39°53' W 075°11'0 0.0
2017-Jan-17 21:33N 39°53' W 075°11'0 0.0
2017-Jan-17 20:34N 39°53' W 075°11'0 0.2
2017-Jan-17 19:33N 39°53' W 075°11'0 0.1
2017-Jan-17 18:33N 39°53' W 075°11'0 0.0
2017-Jan-17 17:33N 39°53' W 075°11'0 0.0
2017-Jan-17 16:33N 39°53' W 075°11'2 2.2
2017-Jan-17 15:33N 39°53' W 075°08'4 4.4
2017-Jan-17 14:33N 39°58' W 075°08'1010.4
2017-Jan-17 13:33N 40°04' W 074°56'10 9.6
2017-Jan-17 12:33N 40°08' W 074°45'2 1.6
2017-Jan-17 11:06N 40°07' W 074°48'3 6.2
2017-Jan-17 10:33N 40°05' W 074°52'8 7.8
2017-Jan-17 09:33N 40°01' W 075°01'8 7.8
2017-Jan-17 08:33N 39°56' W 075°08'4 3.9
2017-Jan-17 07:33N 39°53' W 075°11'0 0.0
2017-Jan-17 06:33N 39°53' W 075°11'0 0.0
2017-Jan-17 05:33N 39°53' W 075°11'0 0.0
2017-Jan-17 04:33N 39°53' W 075°11'0 0.0
2017-Jan-17 03:33N 39°53' W 075°11'0 0.0
2017-Jan-17 02:33N 39°53' W 075°11'0 0.0
2017-Jan-17 01:33N 39°53' W 075°11'0 0.0
2017-Jan-17 00:34N 39°53' W 075°11'0 0.0
2017-Jan-16 23:33N 39°53' W 075°11'0 0.0
2017-Jan-16 22:33N 39°53' W 075°11'0 0.0
2017-Jan-16 21:33N 39°53' W 075°11'0 0.0
2017-Jan-16 20:33N 39°53' W 075°11'1 1.3
2017-Jan-16 19:33N 39°53' W 075°10'2 1.6
2017-Jan-16 18:33N 39°54' W 075°08'2 2.4
2017-Jan-16 17:33N 39°53' W 075°11'0 0.0
2017-Jan-16 16:33N 39°53' W 075°11'0 0.0
2017-Jan-16 15:33N 39°53' W 075°11'0 0.0
2017-Jan-16 14:33N 39°53' W 075°11'0 0.0
2017-Jan-16 13:33N 39°53' W 075°11'0 0.0
2017-Jan-16 12:33N 39°53' W 075°11'2 2.4
2017-Jan-16 11:33N 39°54' W 075°08'0 0.1
2017-Jan-16 10:33N 39°54' W 075°08'0 0.0
2017-Jan-16 09:33N 39°54' W 075°08'0 0.0
2017-Jan-16 08:33N 39°54' W 075°08'0 0.0
2017-Jan-16 07:33N 39°54' W 075°08'0 0.0
2017-Jan-16 06:33N 39°54' W 075°08'0 0.0
2017-Jan-16 05:33N 39°54' W 075°08'0 0.0
2017-Jan-16 04:33N 39°54' W 075°08'0 0.0
2017-Jan-16 03:33N 39°54' W 075°08'0 0.0
2017-Jan-16 02:33N 39°54' W 075°08'0 0.0
2017-Jan-16 01:33N 39°54' W 075°08'0 0.0
2017-Jan-16 00:33N 39°54' W 075°08'0 0.0
2017-Jan-15 23:33N 39°54' W 075°08'3 3.0
2017-Jan-15 22:33N 39°57' W 075°08'4 3.5
2017-Jan-15 21:33N 39°59' W 075°04'0 0.0
2017-Jan-15 20:33N 39°59' W 075°04'1 0.8
2017-Jan-15 19:33N 39°59' W 075°05'0 0.0
2017-Jan-15 18:33N 39°59' W 075°05'0 0.0
2017-Jan-15 17:33N 39°59' W 075°05'0 0.1
2017-Jan-15 16:33N 39°59' W 075°06'0 0.1
2017-Jan-15 15:33N 39°59' W 075°05'0 0.0
2017-Jan-15 14:33N 39°59' W 075°05'1 1.3
2017-Jan-15 13:33N 39°58' W 075°07'6 6.3
2017-Jan-15 12:33N 39°53' W 075°11'4 4.1
2017-Jan-15 11:32N 39°51' W 075°16'0 0.1
2017-Jan-15 10:33N 39°51' W 075°16'0 0.3
2017-Jan-15 09:33N 39°51' W 075°16'0 0.3
2017-Jan-15 08:33N 39°51' W 075°16'0 0.0
2017-Jan-15 07:33N 39°51' W 075°16'0 0.0
2017-Jan-15 06:33N 39°51' W 075°16'0 0.0
2017-Jan-15 05:33N 39°51' W 075°16'0 0.0
2017-Jan-15 04:33N 39°51' W 075°16'0 0.0
2017-Jan-15 03:33N 39°51' W 075°16'0 0.0
2017-Jan-15 02:33N 39°51' W 075°16'0 0.0
2017-Jan-15 01:33N 39°51' W 075°16'0 0.0
2017-Jan-15 00:33N 39°51' W 075°16'0 0.0
2017-Jan-14 23:33N 39°51' W 075°16'0 0.0
2017-Jan-14 22:33N 39°51' W 075°16'1 1.5
2017-Jan-14 21:33N 39°51' W 075°18'7 7.0
2017-Jan-14 20:33N 39°48' W 075°26'0 0.1
2017-Jan-14 19:33N 39°48' W 075°26'0 0.1
2017-Jan-14 18:33N 39°48' W 075°26'4 4.4
2017-Jan-14 17:33N 39°50' W 075°21'4 4.2
2017-Jan-14 16:33N 39°51' W 075°16'0 0.0
2017-Jan-14 15:33N 39°51' W 075°16'0 0.0
2017-Jan-14 14:33N 39°51' W 075°16'0 0.0
2017-Jan-14 13:34N 39°51' W 075°16'0 0.0
2017-Jan-14 12:33N 39°51' W 075°16'0 0.0
2017-Jan-14 11:34N 39°51' W 075°16'0 0.0
2017-Jan-14 10:34N 39°51' W 075°16'0 0.0
2017-Jan-14 09:34N 39°51' W 075°16'0 0.0
2017-Jan-14 08:34N 39°51' W 075°16'0 0.0
2017-Jan-14 07:34N 39°51' W 075°16'0 0.2
2017-Jan-14 06:33N 39°51' W 075°16'2 2.3
2017-Jan-14 05:33N 39°52' W 075°13'2 1.9
2017-Jan-14 04:34N 39°53' W 075°11'0 0.0
2017-Jan-14 03:34N 39°53' W 075°11'0 0.0
2017-Jan-13 23:34N 39°53' W 075°11'0 0.0
2017-Jan-13 22:33N 39°53' W 075°11'0 0.0
2017-Jan-13 21:34N 39°53' W 075°11'5 5.1
2017-Jan-13 20:34N 39°58' W 075°08'2 2.0
2017-Jan-13 19:34N 39°59' W 075°05'5 5.1
2017-Jan-13 18:33N 39°54' W 075°08'7 7.0
2017-Jan-13 17:34N 39°51' W 075°16'8 7.5
2017-Jan-13 16:33N 39°48' W 075°25'7 6.6
2017-Jan-13 15:34N 39°43' W 075°31'0 0.0
2017-Jan-13 14:33N 39°43' W 075°31'0 0.0
2017-Jan-13 13:34N 39°43' W 075°31'0 0.5
2017-Jan-13 12:34N 39°43' W 075°30'1 0.7
2017-Jan-13 11:34N 39°43' W 075°31'0 0.0
2017-Jan-13 10:34N 39°43' W 075°31'0 0.2
2017-Jan-13 09:34N 39°43' W 075°31'0 0.0
2017-Jan-13 08:34N 39°43' W 075°31'0 0.0
2017-Jan-13 07:34N 39°43' W 075°31'0 0.0
2017-Jan-13 06:34N 39°43' W 075°31'0 0.0
2017-Jan-13 05:34N 39°43' W 075°31'0 0.0
2017-Jan-13 04:34N 39°43' W 075°31'0 0.0
2017-Jan-13 03:33N 39°43' W 075°31'0 0.0
2017-Jan-13 02:34N 39°43' W 075°31'1110.6
2017-Jan-13 01:33N 39°33' W 075°33'1211.9
2017-Jan-13 00:33N 39°21' W 075°27'1312.8
2017-Jan-12 23:33N 39°11' W 075°17'1 0.1
2017-Jan-12 12:24N 39°10' W 075°16'8 9.4
2017-Jan-12 11:33N 39°17' W 075°21'1010.0
2017-Jan-12 10:33N 39°24' W 075°30'1111.3
2017-Jan-12 09:34N 39°35' W 075°34'1212.4
2017-Jan-12 08:33N 39°47' W 075°28'1010.0
2017-Jan-12 07:33N 39°51' W 075°16'4 4.5
2017-Jan-12 06:33N 39°53' W 075°11'0 0.1
2017-Jan-12 05:33N 39°53' W 075°11'0 0.0
2017-Jan-12 04:33N 39°53' W 075°11'2 1.9
2017-Jan-12 03:33N 39°52' W 075°13'1 0.7
2017-Jan-12 02:33N 39°52' W 075°14'1 0.9
2017-Jan-12 01:33N 39°51' W 075°15'5 5.0
2017-Jan-12 00:33N 39°50' W 075°21'3 3.4
2017-Jan-11 23:33N 39°48' W 075°25'7 7.2
2017-Jan-11 22:33N 39°43' W 075°31'0 0.0
2017-Jan-11 21:33N 39°43' W 075°31'0 0.0
2017-Jan-11 20:33N 39°43' W 075°31'0 0.0
2017-Jan-11 19:33N 39°43' W 075°31'0 0.0
2017-Jan-11 18:33N 39°43' W 075°31'0 0.0
2017-Jan-11 17:33N 39°43' W 075°31'0 0.0
2017-Jan-11 16:33N 39°43' W 075°31'0 0.0
2017-Jan-11 15:33N 39°43' W 075°31'0 0.0
2017-Jan-11 14:33N 39°43' W 075°31'0 0.0
2017-Jan-11 13:33N 39°43' W 075°31'0 0.1
2017-Jan-11 12:33N 39°43' W 075°31'0 0.1
2017-Jan-11 11:33N 39°43' W 075°31'0 0.0
2017-Jan-11 10:33N 39°43' W 075°31'0 0.0
2017-Jan-11 09:33N 39°43' W 075°31'0 0.0
2017-Jan-11 08:33N 39°43' W 075°31'0 0.0
2017-Jan-11 07:33N 39°43' W 075°31'0 0.0
2017-Jan-11 06:33N 39°43' W 075°31'0 0.1
2017-Jan-11 05:33N 39°43' W 075°31'0 0.1
2017-Jan-11 04:33N 39°43' W 075°31'0 0.0
2017-Jan-11 03:33N 39°43' W 075°31'0 0.0
2017-Jan-11 02:33N 39°43' W 075°31'6 6.4
2017-Jan-11 01:33N 39°48' W 075°26'1 1.3
2017-Jan-11 00:33N 39°49' W 075°24'1 1.3
2017-Jan-10 23:33N 39°48' W 075°26'6 5.5
2017-Jan-10 22:33N 39°51' W 075°20'4 3.6
2017-Jan-10 21:34N 39°51' W 075°15'0 0.0
2017-Jan-10 20:34N 39°51' W 075°15'2 2.1
2017-Jan-10 19:34N 39°52' W 075°13'4 3.5
2017-Jan-10 18:33N 39°53' W 075°08'1 0.7
2017-Jan-10 17:33N 39°54' W 075°08'0 0.0
2017-Jan-10 16:33N 39°54' W 075°08'0 0.0
2017-Jan-10 15:33N 39°54' W 075°08'5 4.9
2017-Jan-10 14:33N 39°51' W 075°14'3 2.8
2017-Jan-10 13:33N 39°53' W 075°11'0 0.0
2017-Jan-10 12:33N 39°53' W 075°11'0 0.0
2017-Jan-10 11:33N 39°53' W 075°11'0 0.0
2017-Jan-10 10:33N 39°53' W 075°11'0 0.0
2017-Jan-10 09:33N 39°53' W 075°11'0 0.0
2017-Jan-10 08:33N 39°53' W 075°11'0 0.0
2017-Jan-10 07:33N 39°53' W 075°11'0 0.0
2017-Jan-10 06:33N 39°53' W 075°11'0 0.0
2017-Jan-10 05:33N 39°53' W 075°11'0 0.0
2017-Jan-10 04:33N 39°53' W 075°11'0 0.0
2017-Jan-10 03:33N 39°53' W 075°11'0 0.0
2017-Jan-10 02:33N 39°53' W 075°11'  
Track history (hours):
 
Tides and Currents Weather Stations Pressure Air Temp Water Temp Dewpoint Dewpoint Depression Visibility Wind Speed Wind Dir Waves Ship Positions

Capt. Harry

Owner: Wilmington Tug, Inc., New Castle, DE. More information available from US FCC via Universal Licensing System and Coast Guard Vessel Documentation Center.

Last reported at 2017-Jan-20 01:33 UTC. Time now 2017-Jan-20 01:48 UTC.
Position N 39°53' W 075°11'.

Type: Tug. MMSI: 367012530.

Date/timePositionNaut miles runAvg speedWind from/ knotsBaromVisibWave heightAir tempDewpointWater temp
2017-Jan-20 01:33N 39°53' W 075°11'0 0.0
2017-Jan-20 00:33N 39°53' W 075°11'0 0.0
2017-Jan-19 23:33N 39°53' W 075°11'0 0.0
2017-Jan-19 22:33N 39°53' W 075°11'0 0.0
2017-Jan-19 21:33N 39°53' W 075°11'1 1.2
2017-Jan-19 20:33N 39°53' W 075°10'1 1.2
2017-Jan-19 19:33N 39°53' W 075°11'0 0.0
2017-Jan-19 18:33N 39°53' W 075°11'0 0.0
2017-Jan-19 17:33N 39°53' W 075°11'0 0.0
2017-Jan-19 16:33N 39°53' W 075°11'0 0.0
2017-Jan-19 15:33N 39°53' W 075°11'0 0.0
2017-Jan-19 14:33N 39°53' W 075°11'0 0.0
2017-Jan-19 13:33N 39°53' W 075°11'0 0.0
2017-Jan-19 12:33N 39°53' W 075°11'0 0.0
2017-Jan-19 11:33N 39°53' W 075°11'0 0.0
2017-Jan-19 10:33N 39°53' W 075°11'0 0.0
2017-Jan-19 09:33N 39°53' W 075°11'0 0.0
2017-Jan-19 08:33N 39°53' W 075°11'0 0.0
2017-Jan-19 07:33N 39°53' W 075°11'0 0.0
2017-Jan-19 06:33N 39°53' W 075°11'0 0.0
2017-Jan-19 05:33N 39°53' W 075°11'0 0.0
2017-Jan-19 04:33N 39°53' W 075°11'0 0.0
2017-Jan-19 03:33N 39°53' W 075°11'0 0.0
2017-Jan-19 02:33N 39°53' W 075°11'3 2.5
2017-Jan-19 01:33N 39°54' W 075°08'0 0.3
2017-Jan-19 00:33N 39°54' W 075°08'0 0.1
2017-Jan-18 23:33N 39°54' W 075°08'0 0.2
2017-Jan-18 22:33N 39°54' W 075°08'2 2.3
2017-Jan-18 21:34N 39°53' W 075°11'3 3.3
2017-Jan-18 20:33N 39°51' W 075°15'2 1.9
2017-Jan-18 19:33N 39°52' W 075°13'1 1.5
2017-Jan-18 18:33N 39°53' W 075°11'0 0.0
2017-Jan-18 17:33N 39°53' W 075°11'0 0.0
2017-Jan-18 16:33N 39°53' W 075°11'0 0.0
2017-Jan-18 15:33N 39°53' W 075°11'0 0.0
2017-Jan-18 14:33N 39°53' W 075°11'0 0.0
2017-Jan-18 13:33N 39°53' W 075°11'0 0.0
2017-Jan-18 12:33N 39°53' W 075°11'0 0.0
2017-Jan-18 11:33N 39°53' W 075°11'2 2.5
2017-Jan-18 10:33N 39°54' W 075°08'2 2.5
2017-Jan-18 09:33N 39°53' W 075°11'0 0.0
2017-Jan-18 08:33N 39°53' W 075°11'0 0.0
2017-Jan-18 07:33N 39°53' W 075°11'0 0.0
2017-Jan-18 06:33N 39°53' W 075°11'0 0.0
2017-Jan-18 05:33N 39°53' W 075°11'0 0.0
2017-Jan-18 04:33N 39°53' W 075°11'0 0.0
2017-Jan-18 03:33N 39°53' W 075°11'0 0.0
2017-Jan-18 02:33N 39°53' W 075°11'0 0.0
2017-Jan-18 01:33N 39°53' W 075°11'0 0.0
2017-Jan-18 00:33N 39°53' W 075°11'0 0.0
2017-Jan-17 23:33N 39°53' W 075°11'0 0.0
2017-Jan-17 22:33N 39°53' W 075°11'0 0.0
2017-Jan-17 21:33N 39°53' W 075°11'0 0.0
2017-Jan-17 20:34N 39°53' W 075°11'0 0.2
2017-Jan-17 19:33N 39°53' W 075°11'0 0.1
2017-Jan-17 18:33N 39°53' W 075°11'0 0.0
2017-Jan-17 17:33N 39°53' W 075°11'0 0.0
2017-Jan-17 16:33N 39°53' W 075°11'2 2.2
2017-Jan-17 15:33N 39°53' W 075°08'4 4.4
2017-Jan-17 14:33N 39°58' W 075°08'1010.4
2017-Jan-17 13:33N 40°04' W 074°56'10 9.6
2017-Jan-17 12:33N 40°08' W 074°45'2 1.6
2017-Jan-17 11:06N 40°07' W 074°48'3 6.2
2017-Jan-17 10:33N 40°05' W 074°52'8 7.8
2017-Jan-17 09:33N 40°01' W 075°01'8 7.8
2017-Jan-17 08:33N 39°56' W 075°08'4 3.9
2017-Jan-17 07:33N 39°53' W 075°11'0 0.0
2017-Jan-17 06:33N 39°53' W 075°11'0 0.0
2017-Jan-17 05:33N 39°53' W 075°11'0 0.0
2017-Jan-17 04:33N 39°53' W 075°11'0 0.0
2017-Jan-17 03:33N 39°53' W 075°11'0 0.0
2017-Jan-17 02:33N 39°53' W 075°11'0 0.0
2017-Jan-17 01:33N 39°53' W 075°11'0 0.0
2017-Jan-17 00:34N 39°53' W 075°11'0 0.0
2017-Jan-16 23:33N 39°53' W 075°11'0 0.0
2017-Jan-16 22:33N 39°53' W 075°11'0 0.0
2017-Jan-16 21:33N 39°53' W 075°11'0 0.0
2017-Jan-16 20:33N 39°53' W 075°11'1 1.3
2017-Jan-16 19:33N 39°53' W 075°10'2 1.6
2017-Jan-16 18:33N 39°54' W 075°08'2 2.4
2017-Jan-16 17:33N 39°53' W 075°11'0 0.0
2017-Jan-16 16:33N 39°53' W 075°11'0 0.0
2017-Jan-16 15:33N 39°53' W 075°11'0 0.0
2017-Jan-16 14:33N 39°53' W 075°11'0 0.0
2017-Jan-16 13:33N 39°53' W 075°11'0 0.0
2017-Jan-16 12:33N 39°53' W 075°11'2 2.4
2017-Jan-16 11:33N 39°54' W 075°08'0 0.1
2017-Jan-16 10:33N 39°54' W 075°08'0 0.0
2017-Jan-16 09:33N 39°54' W 075°08'0 0.0
2017-Jan-16 08:33N 39°54' W 075°08'0 0.0
2017-Jan-16 07:33N 39°54' W 075°08'0 0.0
2017-Jan-16 06:33N 39°54' W 075°08'0 0.0
2017-Jan-16 05:33N 39°54' W 075°08'0 0.0
2017-Jan-16 04:33N 39°54' W 075°08'0 0.0
2017-Jan-16 03:33N 39°54' W 075°08'0 0.0
2017-Jan-16 02:33N 39°54' W 075°08'0 0.0
2017-Jan-16 01:33N 39°54' W 075°08'0 0.0
2017-Jan-16 00:33N 39°54' W 075°08'0 0.0
2017-Jan-15 23:33N 39°54' W 075°08'3 3.0
2017-Jan-15 22:33N 39°57' W 075°08'4 3.5
2017-Jan-15 21:33N 39°59' W 075°04'0 0.0
2017-Jan-15 20:33N 39°59' W 075°04'1 0.8
2017-Jan-15 19:33N 39°59' W 075°05'0 0.0
2017-Jan-15 18:33N 39°59' W 075°05'0 0.0
2017-Jan-15 17:33N 39°59' W 075°05'0 0.1
2017-Jan-15 16:33N 39°59' W 075°06'0 0.1
2017-Jan-15 15:33N 39°59' W 075°05'0 0.0
2017-Jan-15 14:33N 39°59' W 075°05'1 1.3
2017-Jan-15 13:33N 39°58' W 075°07'6 6.3
2017-Jan-15 12:33N 39°53' W 075°11'4 4.1
2017-Jan-15 11:32N 39°51' W 075°16'0 0.1
2017-Jan-15 10:33N 39°51' W 075°16'0 0.3
2017-Jan-15 09:33N 39°51' W 075°16'0 0.3
2017-Jan-15 08:33N 39°51' W 075°16'0 0.0
2017-Jan-15 07:33N 39°51' W 075°16'0 0.0
2017-Jan-15 06:33N 39°51' W 075°16'0 0.0
2017-Jan-15 05:33N 39°51' W 075°16'0 0.0
2017-Jan-15 04:33N 39°51' W 075°16'0 0.0
2017-Jan-15 03:33N 39°51' W 075°16'0 0.0
2017-Jan-15 02:33N 39°51' W 075°16'0 0.0
2017-Jan-15 01:33N 39°51' W 075°16'0 0.0
2017-Jan-15 00:33N 39°51' W 075°16'0 0.0
2017-Jan-14 23:33N 39°51' W 075°16'0 0.0
2017-Jan-14 22:33N 39°51' W 075°16'1 1.5
2017-Jan-14 21:33N 39°51' W 075°18'7 7.0
2017-Jan-14 20:33N 39°48' W 075°26'0 0.1
2017-Jan-14 19:33N 39°48' W 075°26'0 0.1
2017-Jan-14 18:33N 39°48' W 075°26'4 4.4
2017-Jan-14 17:33N 39°50' W 075°21'4 4.2
2017-Jan-14 16:33N 39°51' W 075°16'0 0.0
2017-Jan-14 15:33N 39°51' W 075°16'0 0.0
2017-Jan-14 14:33N 39°51' W 075°16'0 0.0
2017-Jan-14 13:34N 39°51' W 075°16'0 0.0
2017-Jan-14 12:33N 39°51' W 075°16'0 0.0
2017-Jan-14 11:34N 39°51' W 075°16'0 0.0
2017-Jan-14 10:34N 39°51' W 075°16'0 0.0
2017-Jan-14 09:34N 39°51' W 075°16'0 0.0
2017-Jan-14 08:34N 39°51' W 075°16'0 0.0
2017-Jan-14 07:34N 39°51' W 075°16'0 0.2
2017-Jan-14 06:33N 39°51' W 075°16'2 2.3
2017-Jan-14 05:33N 39°52' W 075°13'2 1.9
2017-Jan-14 04:34N 39°53' W 075°11'0 0.0
2017-Jan-14 03:34N 39°53' W 075°11'0 0.0
2017-Jan-13 23:34N 39°53' W 075°11'0 0.0
2017-Jan-13 22:33N 39°53' W 075°11'0 0.0
2017-Jan-13 21:34N 39°53' W 075°11'5 5.1
2017-Jan-13 20:34N 39°58' W 075°08'2 2.0
2017-Jan-13 19:34N 39°59' W 075°05'5 5.1
2017-Jan-13 18:33N 39°54' W 075°08'7 7.0
2017-Jan-13 17:34N 39°51' W 075°16'8 7.5
2017-Jan-13 16:33N 39°48' W 075°25'7 6.6
2017-Jan-13 15:34N 39°43' W 075°31'0 0.0
2017-Jan-13 14:33N 39°43' W 075°31'0 0.0
2017-Jan-13 13:34N 39°43' W 075°31'0 0.5
2017-Jan-13 12:34N 39°43' W 075°30'1 0.7
2017-Jan-13 11:34N 39°43' W 075°31'0 0.0
2017-Jan-13 10:34N 39°43' W 075°31'0 0.2
2017-Jan-13 09:34N 39°43' W 075°31'0 0.0
2017-Jan-13 08:34N 39°43' W 075°31'0 0.0
2017-Jan-13 07:34N 39°43' W 075°31'0 0.0
2017-Jan-13 06:34N 39°43' W 075°31'0 0.0
2017-Jan-13 05:34N 39°43' W 075°31'0 0.0
2017-Jan-13 04:34N 39°43' W 075°31'0 0.0
2017-Jan-13 03:33N 39°43' W 075°31'0 0.0
2017-Jan-13 02:34N 39°43' W 075°31'1110.6
2017-Jan-13 01:33N 39°33' W 075°33'1211.9
2017-Jan-13 00:33N 39°21' W 075°27'1312.8
2017-Jan-12 23:33N 39°11' W 075°17'1 0.1
2017-Jan-12 12:24N 39°10' W 075°16'8 9.4
2017-Jan-12 11:33N 39°17' W 075°21'1010.0
2017-Jan-12 10:33N 39°24' W 075°30'1111.3
2017-Jan-12 09:34N 39°35' W 075°34'1212.4
2017-Jan-12 08:33N 39°47' W 075°28'1010.0
2017-Jan-12 07:33N 39°51' W 075°16'4 4.5
2017-Jan-12 06:33N 39°53' W 075°11'0 0.1
2017-Jan-12 05:33N 39°53' W 075°11'0 0.0
2017-Jan-12 04:33N 39°53' W 075°11'2 1.9
2017-Jan-12 03:33N 39°52' W 075°13'1 0.7
2017-Jan-12 02:33N 39°52' W 075°14'1 0.9
2017-Jan-12 01:33N 39°51' W 075°15'5 5.0
2017-Jan-12 00:33N 39°50' W 075°21'3 3.4
2017-Jan-11 23:33N 39°48' W 075°25'7 7.2
2017-Jan-11 22:33N 39°43' W 075°31'0 0.0
2017-Jan-11 21:33N 39°43' W 075°31'0 0.0
2017-Jan-11 20:33N 39°43' W 075°31'0 0.0
2017-Jan-11 19:33N 39°43' W 075°31'0 0.0
2017-Jan-11 18:33N 39°43' W 075°31'0 0.0
2017-Jan-11 17:33N 39°43' W 075°31'0 0.0
2017-Jan-11 16:33N 39°43' W 075°31'0 0.0
2017-Jan-11 15:33N 39°43' W 075°31'0 0.0
2017-Jan-11 14:33N 39°43' W 075°31'0 0.0
2017-Jan-11 13:33N 39°43' W 075°31'0 0.1
2017-Jan-11 12:33N 39°43' W 075°31'0 0.1
2017-Jan-11 11:33N 39°43' W 075°31'0 0.0
2017-Jan-11 10:33N 39°43' W 075°31'0 0.0
2017-Jan-11 09:33N 39°43' W 075°31'0 0.0
2017-Jan-11 08:33N 39°43' W 075°31'0 0.0
2017-Jan-11 07:33N 39°43' W 075°31'0 0.0
2017-Jan-11 06:33N 39°43' W 075°31'0 0.1
2017-Jan-11 05:33N 39°43' W 075°31'0 0.1
2017-Jan-11 04:33N 39°43' W 075°31'0 0.0
2017-Jan-11 03:33N 39°43' W 075°31'0 0.0
2017-Jan-11 02:33N 39°43' W 075°31'6 6.4
2017-Jan-11 01:33N 39°48' W 075°26'1 1.3
2017-Jan-11 00:33N 39°49' W 075°24'1 1.3
2017-Jan-10 23:33N 39°48' W 075°26'6 5.5
2017-Jan-10 22:33N 39°51' W 075°20'4 3.6
2017-Jan-10 21:34N 39°51' W 075°15'0 0.0
2017-Jan-10 20:34N 39°51' W 075°15'2 2.1
2017-Jan-10 19:34N 39°52' W 075°13'4 3.5
2017-Jan-10 18:33N 39°53' W 075°08'1 0.7
2017-Jan-10 17:33N 39°54' W 075°08'0 0.0
2017-Jan-10 16:33N 39°54' W 075°08'0 0.0
2017-Jan-10 15:33N 39°54' W 075°08'5 4.9
2017-Jan-10 14:33N 39°51' W 075°14'3 2.8
2017-Jan-10 13:33N 39°53' W 075°11'0 0.0
2017-Jan-10 12:33N 39°53' W 075°11'0 0.0
2017-Jan-10 11:33N 39°53' W 075°11'0 0.0
2017-Jan-10 10:33N 39°53' W 075°11'0 0.0
2017-Jan-10 09:33N 39°53' W 075°11'0 0.0
2017-Jan-10 08:33N 39°53' W 075°11'0 0.0
2017-Jan-10 07:33N 39°53' W 075°11'0 0.0
2017-Jan-10 06:33N 39°53' W 075°11'0 0.0
2017-Jan-10 05:33N 39°53' W 075°11'0 0.0
2017-Jan-10 04:33N 39°53' W 075°11'0 0.0
2017-Jan-10 03:33N 39°53' W 075°11'0 0.0
2017-Jan-10 02:33N 39°53' W 075°11'  

Dump ship's entire track history